Time;durP1;ratioP1;P1;durP2;ratioP2;P2;SDS_P1;SDS_P2;PMS_P1;PMS_P2;Temp;Humidity;BMP_temperature;BMP_pressure;BME280_temperature;BME280_humidity;BME280_pressure;Samples;Min_cycle;Max_cycle;Signal;HPM_P1;HPM_P2
2023/05/08 01:02:52;;;;;;;3.58;0.90;;;;;;;;;;5006605;28;20912;-63
2023/05/08 01:07:55;;;;;;;2.80;0.75;;;;;;;;;;5001442;28;20820;-64
2023/05/08 01:10:22;;;;;;;2.70;0.75;;;;;;;;;;4992777;28;20053;-63
2023/05/08 01:13:18;;;;;;;3.25;0.88;;;;;;;;;;4990963;28;20105;-64
2023/05/08 01:15:50;;;;;;;2.03;0.70;;;;;;;;;;4988368;28;20133;-63
2023/05/08 01:18:23;;;;;;;3.17;0.90;;;;;;;;;;4992979;28;20050;-62
2023/05/08 01:20:56;;;;;;;4.05;1.10;;;;;;;;;;4992651;28;20384;-64
2023/05/08 01:23:42;;;;;;;4.05;0.80;;;;;;;;;;4991787;28;20043;-65
2023/05/08 01:26:11;;;;;;;2.00;0.70;;;;;;;;;;4992522;28;20054;-64
2023/05/08 01:28:53;;;;;;;2.85;0.65;;;;;;;;;;4991596;28;20101;-62
2023/05/08 01:31:35;;;;;;;6.18;0.70;;;;;;;;;;4990871;28;20869;-63
2023/05/08 01:34:02;;;;;;;3.95;0.90;;;;;;;;;;4990879;28;20079;-63
2023/05/08 01:36:47;;;;;;;3.00;0.80;;;;;;;;;;4991598;28;20077;-65
2023/05/08 01:39:22;;;;;;;5.10;0.98;;;;;;;;;;4991720;28;20042;-64
2023/05/08 01:42:00;;;;;;;2.22;0.80;;;;;;;;;;4988896;28;20042;-65
2023/05/08 01:44:33;;;;;;;2.55;0.75;;;;;;;;;;4990604;28;20053;-63
2023/05/08 01:47:05;;;;;;;4.07;0.70;;;;;;;;;;4990828;28;20069;-62
2023/05/08 01:49:36;;;;;;;2.60;0.85;;;;;;;;;;4990612;28;20057;-59
2023/05/08 01:52:04;;;;;;;4.07;1.00;;;;;;;;;;4990626;28;20051;-57
2023/05/08 01:54:36;;;;;;;5.63;1.60;;;;;;;;;;5022753;28;20045;-63
2023/05/08 01:57:03;;;;;;;5.00;2.05;;;;;;;;;;4994032;28;20430;-61
2023/05/08 01:59:32;;;;;;;7.78;1.50;;;;;;;;;;4989981;28;20034;-57
2023/05/08 02:02:00;;;;;;;5.28;0.80;;;;;;;;;;4991625;28;20053;-59
2023/05/08 02:04:27;;;;;;;2.55;0.70;;;;;;;;;;5014086;28;20033;-60
2023/05/08 02:06:56;;;;;;;2.22;0.60;;;;;;;;;;4990641;28;20145;-63
2023/05/08 02:09:23;;;;;;;2.30;0.70;;;;;;;;;;4990467;28;20034;-60
2023/05/08 02:11:51;;;;;;;2.05;0.70;;;;;;;;;;5021256;28;20054;-61
2023/05/08 02:14:19;;;;;;;4.38;0.80;;;;;;;;;;4990775;28;20042;-60
2023/05/08 02:16:47;;;;;;;2.47;0.80;;;;;;;;;;5012622;28;20785;-60
2023/05/08 02:19:14;;;;;;;1.75;0.60;;;;;;;;;;4976431;28;20057;-59
2023/05/08 02:21:42;;;;;;;1.48;0.57;;;;;;;;;;4978102;28;20057;-62
2023/05/08 02:24:09;;;;;;;2.40;0.60;;;;;;;;;;4977689;28;20084;-61
2023/05/08 02:26:36;;;;;;;5.63;0.82;;;;;;;;;;4986636;28;20041;-59
2023/05/08 02:29:03;;;;;;;5.63;0.70;;;;;;;;;;4988979;28;20399;-61
2023/05/08 02:31:30;;;;;;;5.13;0.70;;;;;;;;;;4975660;28;20038;-62
2023/05/08 02:33:57;;;;;;;2.20;0.57;;;;;;;;;;4976978;28;20463;-62
2023/05/08 02:36:24;;;;;;;3.80;0.80;;;;;;;;;;5007219;28;20391;-61
2023/05/08 02:38:53;;;;;;;1.83;0.50;;;;;;;;;;4977403;28;20049;-61
2023/05/08 02:41:24;;;;;;;2.58;0.85;;;;;;;;;;4976892;28;20043;-60
2023/05/08 02:43:53;;;;;;;7.65;0.93;;;;;;;;;;5009037;28;20154;-60
2023/05/08 02:46:25;;;;;;;2.30;0.63;;;;;;;;;;5008396;28;20476;-60
2023/05/08 02:48:51;;;;;;;1.58;0.60;;;;;;;;;;4976388;28;20075;-60
2023/05/08 02:51:27;;;;;;;3.40;0.90;;;;;;;;;;5009641;28;20144;-60
2023/05/08 02:54:13;;;;;;;3.85;0.90;;;;;;;;;;4976845;28;20132;-65
2023/05/08 02:56:43;;;;;;;2.90;1.00;;;;;;;;;;4977747;28;20042;-58
2023/05/08 02:59:13;;;;;;;3.40;0.98;;;;;;;;;;4978746;28;20396;-56
2023/05/08 03:01:46;;;;;;;8.23;1.08;;;;;;;;;;4977607;28;20035;-54
2023/05/08 03:04:15;;;;;;;2.95;0.80;;;;;;;;;;4978015;28;20048;-58
2023/05/08 03:06:45;;;;;;;3.58;1.40;;;;;;;;;;4976055;28;20058;-63
2023/05/08 03:09:15;;;;;;;4.90;1.67;;;;;;;;;;4977837;28;20109;-59
2023/05/08 03:11:43;;;;;;;8.20;3.65;;;;;;;;;;4976312;28;20053;-60
2023/05/08 03:14:11;;;;;;;10.02;1.42;;;;;;;;;;4978474;28;20054;-63
2023/05/08 03:16:39;;;;;;;6.75;1.30;;;;;;;;;;4978422;28;20121;-58
2023/05/08 03:19:08;;;;;;;3.30;1.20;;;;;;;;;;4978212;28;20043;-61
2023/05/08 03:21:36;;;;;;;3.53;1.35;;;;;;;;;;4977198;28;20061;-58
2023/05/08 03:24:03;;;;;;;8.45;1.50;;;;;;;;;;4976091;28;20491;-58
2023/05/08 03:26:30;;;;;;;6.35;1.00;;;;;;;;;;4976789;28;20523;-60
2023/05/08 03:28:57;;;;;;;2.55;0.80;;;;;;;;;;4976928;28;20038;-60
2023/05/08 03:31:24;;;;;;;6.13;1.30;;;;;;;;;;4975796;28;20053;-61
2023/05/08 03:33:53;;;;;;;3.80;0.90;;;;;;;;;;4976453;28;20132;-61
2023/05/08 03:36:21;;;;;;;2.78;0.80;;;;;;;;;;4972598;28;20117;-61
2023/05/08 03:38:48;;;;;;;6.32;1.40;;;;;;;;;;4976125;28;20108;-59
2023/05/08 03:41:15;;;;;;;6.65;1.40;;;;;;;;;;4977023;28;20625;-59
2023/05/08 03:43:41;;;;;;;7.20;1.30;;;;;;;;;;4975388;28;20133;-61
2023/05/08 03:46:09;;;;;;;3.67;1.10;;;;;;;;;;4977586;28;20058;-61
2023/05/08 03:48:36;;;;;;;3.72;0.90;;;;;;;;;;4976048;28;21041;-58
2023/05/08 03:51:03;;;;;;;5.50;1.27;;;;;;;;;;4976571;28;20190;-61
2023/05/08 03:53:31;;;;;;;6.30;1.40;;;;;;;;;;4976889;28;20045;-60
2023/05/08 03:55:58;;;;;;;3.75;1.25;;;;;;;;;;4975868;28;20038;-61
2023/05/08 03:58:40;;;;;;;6.13;1.85;;;;;;;;;;4975219;28;20058;-59
2023/05/08 04:01:07;;;;;;;9.80;1.60;;;;;;;;;;4975164;28;20065;-60
2023/05/08 04:03:34;;;;;;;4.35;1.00;;;;;;;;;;4976640;28;20045;-61
2023/05/08 04:06:07;;;;;;;4.30;1.02;;;;;;;;;;4979978;28;20602;-61
2023/05/08 04:08:39;;;;;;;5.50;1.15;;;;;;;;;;4977481;28;20034;-61
2023/05/08 04:11:12;;;;;;;6.90;0.90;;;;;;;;;;4977631;28;20050;-61
2023/05/08 04:13:43;;;;;;;3.50;1.30;;;;;;;;;;4993446;28;20371;-61
2023/05/08 04:16:13;;;;;;;5.70;1.92;;;;;;;;;;4977345;28;20034;-61
2023/05/08 04:18:43;;;;;;;4.68;1.80;;;;;;;;;;4976780;28;20060;-60
2023/05/08 04:21:10;;;;;;;8.43;1.27;;;;;;;;;;4976175;28;20598;-60
2023/05/08 04:23:39;;;;;;;4.78;1.00;;;;;;;;;;4977205;28;20525;-62
2023/05/08 04:26:06;;;;;;;6.30;1.20;;;;;;;;;;4977529;28;20089;-60
2023/05/08 04:28:33;;;;;;;3.30;1.00;;;;;;;;;;4977167;28;20034;-61
2023/05/08 04:31:01;;;;;;;6.97;1.00;;;;;;;;;;4979720;28;20038;-60
2023/05/08 04:33:28;;;;;;;4.90;1.00;;;;;;;;;;4977621;28;20052;-61
2023/05/08 04:35:55;;;;;;;5.10;1.33;;;;;;;;;;4979379;28;20121;-59
2023/05/08 04:38:22;;;;;;;5.93;1.40;;;;;;;;;;4978130;28;20230;-58
2023/05/08 04:40:48;;;;;;;3.78;1.15;;;;;;;;;;4979545;28;20046;-60
2023/05/08 04:43:15;;;;;;;5.35;1.40;;;;;;;;;;4980113;28;21056;-60
2023/05/08 04:45:42;;;;;;;4.93;1.20;;;;;;;;;;4979189;28;21021;-62
2023/05/08 04:48:08;;;;;;;5.43;1.20;;;;;;;;;;4978234;28;20074;-60
2023/05/08 04:50:35;;;;;;;6.00;1.67;;;;;;;;;;4979600;28;20153;-63
2023/05/08 04:53:02;;;;;;;7.22;1.42;;;;;;;;;;4980343;28;20110;-60
2023/05/08 04:55:28;;;;;;;4.35;1.23;;;;;;;;;;4977755;28;20044;-61
2023/05/08 04:57:55;;;;;;;2.63;1.20;;;;;;;;;;4978149;28;20050;-59
2023/05/08 05:00:22;;;;;;;3.08;1.10;;;;;;;;;;4979439;28;20061;-62
2023/05/08 05:02:48;;;;;;;3.47;1.58;;;;;;;;;;4977347;28;20062;-60
2023/05/08 05:05:15;;;;;;;3.75;1.70;;;;;;;;;;4979127;28;20596;-61
2023/05/08 05:07:42;;;;;;;3.85;1.60;;;;;;;;;;4978801;28;20050;-61
2023/05/08 05:10:08;;;;;;;3.45;1.45;;;;;;;;;;4977730;28;20122;-61
2023/05/08 05:12:35;;;;;;;3.78;1.70;;;;;;;;;;4979196;28;20531;-59
2023/05/08 05:15:02;;;;;;;4.43;1.48;;;;;;;;;;4980061;28;20431;-60
2023/05/08 05:17:30;;;;;;;4.82;1.45;;;;;;;;;;4978260;28;20043;-60
2023/05/08 05:19:57;;;;;;;3.88;1.65;;;;;;;;;;4979405;28;20038;-59
2023/05/08 05:22:23;;;;;;;6.03;1.80;;;;;;;;;;4978430;28;20045;-60
2023/05/08 05:24:50;;;;;;;4.70;1.70;;;;;;;;;;4976956;28;20089;-60
2023/05/08 05:27:17;;;;;;;4.28;1.85;;;;;;;;;;4976950;28;20201;-62
2023/05/08 05:29:44;;;;;;;5.30;2.90;;;;;;;;;;4975460;28;20080;-61
2023/05/08 05:32:10;;;;;;;7.60;2.40;;;;;;;;;;4976237;28;20740;-61
2023/05/08 05:34:37;;;;;;;3.80;1.73;;;;;;;;;;4974798;28;20041;-58
2023/05/08 05:37:04;;;;;;;4.07;2.00;;;;;;;;;;4976492;28;20050;-62
2023/05/08 05:39:30;;;;;;;4.68;2.38;;;;;;;;;;5007147;28;20057;-60
2023/05/08 05:41:57;;;;;;;4.82;1.80;;;;;;;;;;4975974;28;20043;-59
2023/05/08 05:44:24;;;;;;;4.15;2.13;;;;;;;;;;4973848;28;20046;-59
2023/05/08 05:46:50;;;;;;;4.10;2.22;;;;;;;;;;4975095;28;20046;-62
2023/05/08 05:49:17;;;;;;;4.50;2.38;;;;;;;;;;4974764;28;20491;-60
2023/05/08 05:51:44;;;;;;;5.00;2.70;;;;;;;;;;4973692;28;20058;-62
2023/05/08 05:54:10;;;;;;;5.25;2.72;;;;;;;;;;4978367;28;20030;-60
2023/05/08 05:56:37;;;;;;;5.45;2.85;;;;;;;;;;4978521;28;20070;-60
2023/05/08 05:59:04;;;;;;;6.70;2.78;;;;;;;;;;4979397;28;20064;-62
2023/05/08 06:01:30;;;;;;;5.45;2.70;;;;;;;;;;4978736;28;20053;-61
2023/05/08 06:03:57;;;;;;;5.22;2.80;;;;;;;;;;4978469;28;20038;-61
2023/05/08 06:06:24;;;;;;;5.10;2.67;;;;;;;;;;4976459;28;20054;-61
2023/05/08 06:08:50;;;;;;;6.95;2.55;;;;;;;;;;4977320;28;20124;-60
2023/05/08 06:11:18;;;;;;;5.38;2.65;;;;;;;;;;4977227;28;20101;-60
2023/05/08 06:13:44;;;;;;;4.57;2.22;;;;;;;;;;4978032;28;20590;-61
2023/05/08 06:16:11;;;;;;;5.63;2.50;;;;;;;;;;4980234;28;20046;-60
2023/05/08 06:18:38;;;;;;;4.65;2.35;;;;;;;;;;4978500;28;20042;-61
2023/05/08 06:21:04;;;;;;;5.68;2.75;;;;;;;;;;4979071;28;20684;-62
2023/05/08 06:23:31;;;;;;;7.95;3.60;;;;;;;;;;4979270;28;20030;-61
2023/05/08 06:25:58;;;;;;;8.55;3.72;;;;;;;;;;4977627;28;20465;-63
2023/05/08 06:28:24;;;;;;;7.32;2.88;;;;;;;;;;4977652;28;20030;-61
2023/05/08 06:30:52;;;;;;;6.47;3.03;;;;;;;;;;4977851;28;20038;-62
2023/05/08 06:33:18;;;;;;;5.38;2.47;;;;;;;;;;4979035;28;20483;-61
2023/05/08 06:35:48;;;;;;;4.50;2.60;;;;;;;;;;4977969;28;20090;-62
2023/05/08 06:38:15;;;;;;;5.10;2.80;;;;;;;;;;4982221;28;20062;-61
2023/05/08 06:40:43;;;;;;;5.32;2.53;;;;;;;;;;4981284;28;20526;-60
2023/05/08 06:43:10;;;;;;;4.68;2.95;;;;;;;;;;4980351;28;20188;-59
2023/05/08 06:45:36;;;;;;;5.72;2.67;;;;;;;;;;4977405;28;20050;-60
2023/05/08 06:48:03;;;;;;;4.60;2.78;;;;;;;;;;4976650;28;20137;-61
2023/05/08 06:50:30;;;;;;;5.50;2.65;;;;;;;;;;5008633;28;20133;-62
2023/05/08 06:52:57;;;;;;;4.90;2.90;;;;;;;;;;4978186;28;20831;-60
2023/05/08 06:55:24;;;;;;;7.45;2.75;;;;;;;;;;4977360;28;20054;-62
2023/05/08 06:57:50;;;;;;;5.22;2.55;;;;;;;;;;4977398;28;20097;-58
2023/05/08 07:00:17;;;;;;;5.95;3.75;;;;;;;;;;4978002;28;20054;-60
2023/05/08 07:02:44;;;;;;;8.75;4.80;;;;;;;;;;4976581;28;20038;-62
2023/05/08 07:05:30;;;;;;;6.72;2.85;;;;;;;;;;5011835;28;20046;-61
2023/05/08 07:07:57;;;;;;;5.53;3.08;;;;;;;;;;5012851;28;20052;-63
2023/05/08 07:10:24;;;;;;;5.70;2.85;;;;;;;;;;5014047;28;20044;-62
2023/05/08 07:12:50;;;;;;;4.78;2.80;;;;;;;;;;5014859;28;20049;-61
2023/05/08 07:15:17;;;;;;;6.18;2.53;;;;;;;;;;5014433;28;20423;-61
2023/05/08 07:17:44;;;;;;;5.13;3.00;;;;;;;;;;5013750;28;20046;-60
2023/05/08 07:20:11;;;;;;;5.13;3.03;;;;;;;;;;5014228;28;20037;-59
2023/05/08 07:22:37;;;;;;;4.88;3.08;;;;;;;;;;5012904;28;20038;-61
2023/05/08 07:25:05;;;;;;;7.07;3.30;;;;;;;;;;5012507;28;20042;-61
2023/05/08 07:27:31;;;;;;;5.45;3.25;;;;;;;;;;5012613;28;20072;-62
2023/05/08 07:30:02;;;;;;;5.25;2.90;;;;;;;;;;5013881;28;20069;-60
2023/05/08 07:32:32;;;;;;;6.25;3.33;;;;;;;;;;5014604;28;20115;-60
2023/05/08 07:34:59;;;;;;;6.03;3.13;;;;;;;;;;5015149;28;20037;-57
2023/05/08 07:37:26;;;;;;;7.35;4.40;;;;;;;;;;5011655;28;20094;-59
2023/05/08 07:39:52;;;;;;;5.93;3.40;;;;;;;;;;5013288;28;20391;-59
2023/05/08 07:42:20;;;;;;;4.90;3.03;;;;;;;;;;5014334;28;20042;-58
2023/05/08 07:44:46;;;;;;;6.28;3.05;;;;;;;;;;4977796;28;20395;-58
2023/05/08 07:47:13;;;;;;;5.35;3.55;;;;;;;;;;4980056;28;20057;-58
2023/05/08 07:49:40;;;;;;;6.38;3.40;;;;;;;;;;4978697;28;20039;-62
2023/05/08 07:52:07;;;;;;;6.70;3.65;;;;;;;;;;4981876;28;20054;-60
2023/05/08 07:54:34;;;;;;;4.95;3.30;;;;;;;;;;4980265;28;20120;-62
2023/05/08 07:57:00;;;;;;;6.82;3.97;;;;;;;;;;4979514;28;20058;-62
2023/05/08 07:59:27;;;;;;;8.38;4.25;;;;;;;;;;4976266;28;20049;-62
2023/05/08 08:01:54;;;;;;;6.75;4.18;;;;;;;;;;4978075;28;20054;-61
2023/05/08 08:04:20;;;;;;;6.47;3.95;;;;;;;;;;4978266;28;20081;-59
2023/05/08 08:06:47;;;;;;;6.43;4.13;;;;;;;;;;4978936;28;20150;-58
2023/05/08 08:09:14;;;;;;;6.72;4.15;;;;;;;;;;4978989;28;20045;-62
2023/05/08 08:11:41;;;;;;;10.35;4.10;;;;;;;;;;4976535;28;20042;-59
2023/05/08 08:14:07;;;;;;;7.63;4.07;;;;;;;;;;5009063;28;21743;-59
2023/05/08 08:16:34;;;;;;;7.90;4.45;;;;;;;;;;4978171;28;20366;-60
2023/05/08 08:19:01;;;;;;;6.72;4.40;;;;;;;;;;4977645;28;20100;-58
2023/05/08 08:21:27;;;;;;;8.20;4.25;;;;;;;;;;4977038;28;20046;-62
2023/05/08 08:23:54;;;;;;;9.40;4.20;;;;;;;;;;4977691;28;20149;-60
2023/05/08 08:26:20;;;;;;;6.68;3.70;;;;;;;;;;4978847;28;20054;-60
2023/05/08 08:28:47;;;;;;;6.32;4.18;;;;;;;;;;4975369;28;20117;-60
2023/05/08 08:31:15;;;;;;;8.93;4.43;;;;;;;;;;4977464;28;20034;-60
2023/05/08 08:33:41;;;;;;;6.32;3.90;;;;;;;;;;4976612;28;20050;-61
2023/05/08 08:36:14;;;;;;;6.30;3.88;;;;;;;;;;4976580;28;20118;-59
2023/05/08 08:38:41;;;;;;;9.15;4.78;;;;;;;;;;4974343;28;20161;-59
2023/05/08 08:41:09;;;;;;;6.68;4.25;;;;;;;;;;4975133;28;20507;-59
2023/05/08 08:43:42;;;;;;;6.00;4.18;;;;;;;;;;4974286;28;20062;-60
2023/05/08 08:46:15;;;;;;;6.45;4.63;;;;;;;;;;4976180;28;20050;-62
2023/05/08 08:48:44;;;;;;;8.23;4.65;;;;;;;;;;4976633;28;20121;-59
2023/05/08 08:51:40;;;;;;;6.28;4.07;;;;;;;;;;4976140;28;20030;-59
2023/05/08 08:54:11;;;;;;;6.13;4.03;;;;;;;;;;4970930;28;21711;-62
2023/05/08 08:56:39;;;;;;;8.80;4.55;;;;;;;;;;4976456;28;20118;-60
2023/05/08 08:59:07;;;;;;;6.40;4.10;;;;;;;;;;4976961;28;20189;-60
2023/05/08 09:01:35;;;;;;;6.07;3.80;;;;;;;;;;4974809;28;20121;-60
2023/05/08 09:04:02;;;;;;;7.07;4.35;;;;;;;;;;4976022;28;20038;-60
2023/05/08 09:06:29;;;;;;;8.50;4.32;;;;;;;;;;4974040;28;20059;-61
2023/05/08 09:08:59;;;;;;;6.28;4.00;;;;;;;;;;4974068;28;20047;-59
2023/05/08 09:11:26;;;;;;;5.93;4.00;;;;;;;;;;4973814;28;21752;-64
2023/05/08 09:13:54;;;;;;;6.78;4.10;;;;;;;;;;5006791;28;20355;-63
2023/05/08 09:16:22;;;;;;;6.43;4.50;;;;;;;;;;4973398;28;20176;-61
2023/05/08 09:18:48;;;;;;;6.53;4.40;;;;;;;;;;4974878;28;20085;-62
2023/05/08 09:21:15;;;;;;;9.50;5.05;;;;;;;;;;4975174;28;20107;-60
2023/05/08 09:23:58;;;;;;;6.88;4.30;;;;;;;;;;4974469;28;20073;-63
2023/05/08 09:26:35;;;;;;;9.45;4.65;;;;;;;;;;5006266;28;20050;-61
2023/05/08 09:29:15;;;;;;;7.15;4.95;;;;;;;;;;4978518;28;20038;-60
2023/05/08 09:31:43;;;;;;;10.07;4.97;;;;;;;;;;4979523;28;20093;-64
2023/05/08 09:34:28;;;;;;;8.60;4.60;;;;;;;;;;4978565;28;20053;-60
2023/05/08 09:36:56;;;;;;;7.85;4.63;;;;;;;;;;4977804;28;20125;-61
2023/05/08 09:39:25;;;;;;;6.82;4.28;;;;;;;;;;4978701;28;20050;-61
2023/05/08 09:42:02;;;;;;;7.60;4.85;;;;;;;;;;4977097;28;20097;-62
2023/05/08 09:44:29;;;;;;;6.75;4.65;;;;;;;;;;4978434;28;20053;-60
2023/05/08 09:47:14;;;;;;;7.13;4.30;;;;;;;;;;4977127;28;20061;-60
2023/05/08 09:49:56;;;;;;;9.65;4.80;;;;;;;;;;4978016;28;21203;-60
2023/05/08 09:52:23;;;;;;;6.20;4.03;;;;;;;;;;4977953;28;20124;-60
2023/05/08 09:55:07;;;;;;;6.13;4.03;;;;;;;;;;4979149;28;20054;-61
2023/05/08 09:57:38;;;;;;;7.20;4.85;;;;;;;;;;4977222;28;20076;-60
2023/05/08 10:00:09;;;;;;;7.65;4.55;;;;;;;;;;4977133;28;20046;-61
2023/05/08 10:02:37;;;;;;;7.65;3.85;;;;;;;;;;5008196;28;20042;-61
2023/05/08 10:05:05;;;;;;;9.15;4.38;;;;;;;;;;4978405;28;20062;-61
2023/05/08 10:07:33;;;;;;;6.00;3.75;;;;;;;;;;4976881;28;20794;-60
2023/05/08 10:10:03;;;;;;;6.40;4.55;;;;;;;;;;4979134;28;20054;-60
2023/05/08 10:12:30;;;;;;;6.90;4.10;;;;;;;;;;4997297;28;20044;-59
2023/05/08 10:14:57;;;;;;;8.35;3.75;;;;;;;;;;4978252;28;20109;-62
2023/05/08 10:17:29;;;;;;;6.40;3.65;;;;;;;;;;4977862;28;20043;-60
2023/05/08 10:20:00;;;;;;;7.47;4.22;;;;;;;;;;4977749;28;20046;-60
2023/05/08 10:22:27;;;;;;;7.15;4.60;;;;;;;;;;4976520;28;20054;-61
2023/05/08 10:24:57;;;;;;;10.07;5.18;;;;;;;;;;4977608;28;20045;-61
2023/05/08 10:27:30;;;;;;;6.63;4.70;;;;;;;;;;4982945;28;20061;-63
2023/05/08 10:29:57;;;;;;;;;;;;;;;;;;4978148;28;20046;-63
2023/05/08 10:32:23;;;;;;;8.18;5.00;;;;;;;;;;5008245;28;20419;-61
2023/05/08 10:34:53;;;;;;;8.65;5.07;;;;;;;;;;4978866;28;20062;-62
2023/05/08 10:37:20;;;;;;;6.80;4.47;;;;;;;;;;5008322;28;20034;-60
2023/05/08 10:39:47;;;;;;;7.10;4.60;;;;;;;;;;4977119;28;20053;-62
2023/05/08 10:42:14;;;;;;;7.03;4.25;;;;;;;;;;5010593;28;20034;-61
2023/05/08 10:44:41;;;;;;;6.30;4.28;;;;;;;;;;4993345;28;20735;-60
2023/05/08 10:47:07;;;;;;;8.55;4.78;;;;;;;;;;4979071;28;20085;-64
2023/05/08 10:49:39;;;;;;;7.22;4.15;;;;;;;;;;4977462;28;20136;-62
2023/05/08 10:52:21;;;;;;;7.30;4.00;;;;;;;;;;5009570;28;20051;-63
2023/05/08 10:54:54;;;;;;;5.90;4.00;;;;;;;;;;4978370;28;21044;-60
2023/05/08 10:57:20;;;;;;;7.17;4.10;;;;;;;;;;4975965;28;20041;-65
2023/05/08 10:59:48;;;;;;;6.18;4.03;;;;;;;;;;5009430;28;20034;-64
2023/05/08 11:02:15;;;;;;;6.70;4.03;;;;;;;;;;5008017;28;20097;-62
2023/05/08 11:04:42;;;;;;;6.10;4.13;;;;;;;;;;4979774;28;20865;-61
2023/05/08 11:07:10;;;;;;;7.35;4.43;;;;;;;;;;4977007;28;20488;-60
2023/05/08 11:09:42;;;;;;;6.00;3.92;;;;;;;;;;4977467;28;20034;-62
2023/05/08 11:12:28;;;;;;;6.83;4.00;;;;;;;;;;4977468;28;20065;-62
2023/05/08 11:14:57;;;;;;;8.00;4.00;;;;;;;;;;4993074;28;20288;-60
2023/05/08 11:17:25;;;;;;;6.03;3.92;;;;;;;;;;4974687;28;20154;-64
2023/05/08 11:19:59;;;;;;;6.50;4.28;;;;;;;;;;4975176;28;20041;-60
2023/05/08 11:22:27;;;;;;;7.22;4.30;;;;;;;;;;4978054;28;20046;-61
2023/05/08 11:24:55;;;;;;;6.30;4.00;;;;;;;;;;4977496;28;20038;-60
2023/05/08 11:27:37;;;;;;;7.57;4.57;;;;;;;;;;4974689;28;20625;-62
2023/05/08 11:30:20;;;;;;;6.88;4.50;;;;;;;;;;5008206;28;20495;-60
2023/05/08 11:33:13;;;;;;;9.02;4.57;;;;;;;;;;4977946;28;20133;-62
2023/05/08 11:35:42;;;;;;;8.32;4.72;;;;;;;;;;4976637;28;20053;-63
2023/05/08 11:38:16;;;;;;;6.57;4.50;;;;;;;;;;5008823;28;20052;-62
2023/05/08 11:40:55;;;;;;;9.07;5.25;;;;;;;;;;4975782;28;20053;-58
2023/05/08 11:43:37;;;;;;;12.10;5.93;;;;;;;;;;4974367;28;20408;-62
2023/05/08 11:46:04;;;;;;;9.40;5.40;;;;;;;;;;4977911;28;20559;-60
2023/05/08 11:48:32;;;;;;;9.73;5.10;;;;;;;;;;4977329;28;20050;-62
2023/05/08 11:51:02;;;;;;;6.88;4.53;;;;;;;;;;4978632;28;20046;-61
2023/05/08 11:53:30;;;;;;;7.80;4.88;;;;;;;;;;4978992;28;20042;-63
2023/05/08 11:55:57;;;;;;;7.25;4.97;;;;;;;;;;4977871;28;20038;-59
2023/05/08 11:58:23;;;;;;;10.63;5.63;;;;;;;;;;5007075;28;20049;-62
2023/05/08 12:00:50;;;;;;;11.07;6.32;;;;;;;;;;4976684;28;20034;-59
2023/05/08 12:03:20;;;;;;;7.82;5.25;;;;;;;;;;4976288;28;20054;-59
2023/05/08 12:05:47;;;;;;;9.65;5.78;;;;;;;;;;4994465;28;20163;-59
2023/05/08 12:08:14;;;;;;;9.98;6.05;;;;;;;;;;4995708;28;20866;-58
2023/05/08 12:10:41;;;;;;;10.30;5.72;;;;;;;;;;5026769;28;20466;-59
2023/05/08 12:13:21;;;;;;;8.48;5.35;;;;;;;;;;4996931;28;20042;-58
2023/05/08 12:15:49;;;;;;;12.18;5.57;;;;;;;;;;4997108;28;20056;-60
2023/05/08 12:18:16;;;;;;;9.65;6.15;;;;;;;;;;4997689;28;20061;-60
2023/05/08 12:20:46;;;;;;;9.95;5.57;;;;;;;;;;4998602;28;20045;-59
2023/05/08 12:23:13;;;;;;;10.40;5.50;;;;;;;;;;4996414;28;20121;-58
2023/05/08 12:25:40;;;;;;;9.23;5.82;;;;;;;;;;4996188;28;20037;-60
2023/05/08 12:28:07;;;;;;;14.93;8.13;;;;;;;;;;4994387;28;20080;-61
2023/05/08 12:30:33;;;;;;;14.52;8.35;;;;;;;;;;4995157;28;20119;-59
2023/05/08 12:33:00;;;;;;;13.73;8.73;;;;;;;;;;4994707;28;20097;-60
2023/05/08 12:35:27;;;;;;;12.90;9.00;;;;;;;;;;4993839;28;20116;-62
2023/05/08 12:37:54;;;;;;;19.38;10.50;;;;;;;;;;4997723;28;20128;-60
2023/05/08 12:40:43;;;;;;;16.80;11.15;;;;;;;;;;4992150;28;20546;-59
2023/05/08 12:43:10;;;;;;;19.27;10.40;;;;;;;;;;4971527;28;20065;-58
2023/05/08 12:45:38;;;;;;;18.05;11.05;;;;;;;;;;4974903;28;20124;-60
2023/05/08 12:48:06;;;;;;;18.85;9.35;;;;;;;;;;4973591;28;20054;-59
2023/05/08 12:50:37;;;;;;;18.10;9.93;;;;;;;;;;4974243;28;20056;-61
2023/05/08 12:53:10;;;;;;;18.45;9.65;;;;;;;;;;4974909;28;20125;-59
2023/05/08 12:55:38;;;;;;;23.58;10.88;;;;;;;;;;4971022;28;20752;-59
2023/05/08 12:58:05;;;;;;;16.90;10.02;;;;;;;;;;4973875;28;20031;-60
2023/05/08 13:00:36;;;;;;;15.15;10.00;;;;;;;;;;4973758;28;20546;-56
2023/05/08 13:03:03;;;;;;;13.82;8.32;;;;;;;;;;4974094;28;20030;-58
2023/05/08 13:05:29;;;;;;;16.30;8.30;;;;;;;;;;4974212;28;20579;-59
2023/05/08 13:07:59;;;;;;;17.60;10.70;;;;;;;;;;4974669;28;20050;-57
2023/05/08 13:10:26;;;;;;;24.88;13.18;;;;;;;;;;4971949;28;20424;-56
2023/05/08 13:12:53;;;;;;;23.45;13.20;;;;;;;;;;4975056;28;20038;-60
2023/05/08 13:15:20;;;;;;;24.58;14.45;;;;;;;;;;4974738;28;20030;-57
2023/05/08 13:17:46;;;;;;;21.80;13.68;;;;;;;;;;4972337;28;20090;-57
2023/05/08 13:20:13;;;;;;;23.40;13.70;;;;;;;;;;4975780;28;20042;-56
2023/05/08 13:22:39;;;;;;;24.92;14.18;;;;;;;;;;4974118;28;20744;-59
2023/05/08 13:25:06;;;;;;;23.67;13.52;;;;;;;;;;4974896;28;20549;-56
2023/05/08 13:27:33;;;;;;;24.90;13.45;;;;;;;;;;4972853;28;20050;-56
2023/05/08 13:29:59;;;;;;;25.30;14.13;;;;;;;;;;4974202;28;20049;-56
2023/05/08 13:32:26;;;;;;;29.67;14.50;;;;;;;;;;4973571;28;20379;-56
2023/05/08 13:34:53;;;;;;;28.17;14.63;;;;;;;;;;4973881;28;20670;-56
2023/05/08 13:37:19;;;;;;;25.70;14.95;;;;;;;;;;4973291;28;20075;-56
2023/05/08 13:39:46;;;;;;;30.70;14.20;;;;;;;;;;4974484;28;20491;-57
2023/05/08 13:42:13;;;;;;;32.67;15.48;;;;;;;;;;4975287;28;21777;-56
2023/05/08 13:44:39;;;;;;;23.30;14.00;;;;;;;;;;4973303;28;20042;-58
2023/05/08 13:47:06;;;;;;;26.58;15.00;;;;;;;;;;4973628;28;20078;-57
2023/05/08 13:49:32;;;;;;;24.80;14.23;;;;;;;;;;4971991;28;20387;-58
2023/05/08 13:51:59;;;;;;;25.23;14.05;;;;;;;;;;4991509;28;20050;-57
2023/05/08 13:54:26;;;;;;;38.78;15.70;;;;;;;;;;4974022;28;20034;-57
2023/05/08 13:56:53;;;;;;;38.33;16.23;;;;;;;;;;4988257;28;20077;-56
2023/05/08 13:59:20;;;;;;;27.92;15.30;;;;;;;;;;4974503;28;20133;-59
2023/05/08 14:01:47;;;;;;;24.55;14.98;;;;;;;;;;4974294;28;20085;-55
2023/05/08 14:04:13;;;;;;;24.40;13.50;;;;;;;;;;4974268;28;20372;-57
2023/05/08 14:06:40;;;;;;;23.55;13.70;;;;;;;;;;4972144;28;20438;-55
2023/05/08 14:09:07;;;;;;;21.35;12.77;;;;;;;;;;4988113;28;20113;-56
2023/05/08 14:11:33;;;;;;;25.05;13.02;;;;;;;;;;4972371;28;20053;-55
2023/05/08 14:14:00;;;;;;;20.73;12.23;;;;;;;;;;4973886;28;20038;-56
2023/05/08 14:16:28;;;;;;;25.13;14.02;;;;;;;;;;4977429;28;20625;-55
2023/05/08 14:18:54;;;;;;;24.75;13.05;;;;;;;;;;4983380;28;20053;-57
2023/05/08 14:21:21;;;;;;;23.40;13.70;;;;;;;;;;4977552;28;20062;-57
2023/05/08 14:23:48;;;;;;;23.63;14.57;;;;;;;;;;4977611;28;20097;-56
2023/05/08 14:26:14;;;;;;;21.17;12.98;;;;;;;;;;4977349;28;20038;-55
2023/05/08 14:28:41;;;;;;;23.10;14.50;;;;;;;;;;4979927;28;20045;-56
2023/05/08 14:31:08;;;;;;;27.20;15.82;;;;;;;;;;4980668;28;20089;-55
2023/05/08 14:33:34;;;;;;;24.27;15.05;;;;;;;;;;4978676;28;20130;-58
2023/05/08 14:36:01;;;;;;;27.73;15.73;;;;;;;;;;4977811;28;20070;-57
2023/05/08 14:38:27;;;;;;;24.00;15.30;;;;;;;;;;4975560;28;20054;-55
2023/05/08 14:40:54;;;;;;;26.67;15.82;;;;;;;;;;4976439;28;20098;-56
2023/05/08 14:43:21;;;;;;;26.13;16.95;;;;;;;;;;4975445;28;20039;-55
2023/05/08 14:45:48;;;;;;;26.88;16.35;;;;;;;;;;4973859;28;20050;-56
2023/05/08 14:48:14;;;;;;;29.33;17.15;;;;;;;;;;4976802;28;20054;-54
2023/05/08 14:50:41;;;;;;;25.02;16.38;;;;;;;;;;4975992;28;20395;-61
2023/05/08 14:53:08;;;;;;;29.52;16.70;;;;;;;;;;4978949;28;20065;-55
2023/05/08 14:55:35;;;;;;;29.45;17.63;;;;;;;;;;4975159;28;20042;-56
2023/05/08 14:58:01;;;;;;;29.70;16.52;;;;;;;;;;4975663;28;20792;-56
2023/05/08 15:00:28;;;;;;;30.88;17.48;;;;;;;;;;4970262;28;20073;-57
2023/05/08 15:02:55;;;;;;;28.33;17.60;;;;;;;;;;4978339;28;20027;-55
2023/05/08 15:05:21;;;;;;;26.67;17.15;;;;;;;;;;4979255;28;20045;-57
2023/05/08 15:07:49;;;;;;;26.48;17.95;;;;;;;;;;4978342;28;20050;-56
2023/05/08 15:10:15;;;;;;;28.38;17.35;;;;;;;;;;4980449;28;20526;-53
2023/05/08 15:12:42;;;;;;;28.90;17.88;;;;;;;;;;4994549;28;20057;-55
2023/05/08 15:15:09;;;;;;;19.65;14.32;;;;;;;;;;4978927;28;20649;-55
2023/05/08 15:17:35;;;;;;;22.88;14.32;;;;;;;;;;4975511;28;20125;-55
2023/05/08 15:20:05;;;;;;;26.45;16.15;;;;;;;;;;4978669;28;20042;-57
2023/05/08 15:22:32;;;;;;;23.35;15.55;;;;;;;;;;4978483;28;20047;-60
2023/05/08 15:25:02;;;;;;;22.02;15.40;;;;;;;;;;4982905;28;20037;-61
2023/05/08 15:27:29;;;;;;;21.48;14.77;;;;;;;;;;4978360;28;20049;-60
2023/05/08 15:29:56;;;;;;;19.33;13.70;;;;;;;;;;4978900;28;20034;-62
2023/05/08 15:32:22;;;;;;;18.75;13.43;;;;;;;;;;5010027;28;20104;-56
2023/05/08 15:34:49;;;;;;;21.58;14.05;;;;;;;;;;4978096;28;20046;-53
2023/05/08 15:37:16;;;;;;;21.80;14.00;;;;;;;;;;4974875;28;20112;-55
2023/05/08 15:39:42;;;;;;;20.33;14.45;;;;;;;;;;4974643;28;20046;-54
2023/05/08 15:42:09;;;;;;;19.38;13.02;;;;;;;;;;4977699;28;20746;-54
2023/05/08 15:44:35;;;;;;;20.92;13.85;;;;;;;;;;4974312;28;20030;-55
2023/05/08 15:47:02;;;;;;;18.75;13.00;;;;;;;;;;4974925;28;20113;-54
2023/05/08 15:49:29;;;;;;;18.52;12.52;;;;;;;;;;4976306;28;20070;-56
2023/05/08 15:51:56;;;;;;;17.63;12.52;;;;;;;;;;4976066;28;20586;-57